createdAt,value
2018-12-12T00:01:24.315Z,63.30
2018-12-12T00:03:55.847Z,60.07
2018-12-12T00:06:27.328Z,57.87
2018-12-12T00:08:56.661Z,56.87
2018-12-12T00:11:26.055Z,58.87
2018-12-12T00:13:55.254Z,59.17
2018-12-12T00:16:24.716Z,57.90
2018-12-12T00:18:54.063Z,53.73
2018-12-12T00:21:23.907Z,53.43
2018-12-12T00:23:53.207Z,56.07
2018-12-12T00:26:22.521Z,53.80
2018-12-12T00:28:51.775Z,54.23
2018-12-12T00:31:21.033Z,54.30
2018-12-12T00:33:50.278Z,53.93
2018-12-12T00:36:19.604Z,52.97
2018-12-12T00:38:49.091Z,52.57
2018-12-12T00:41:18.795Z,59.10
2018-12-12T00:43:48.141Z,56.63
2018-12-12T00:46:17.417Z,54.57
2018-12-12T00:48:46.726Z,52.17
2018-12-12T00:51:16.025Z,52.80
2018-12-12T00:53:45.436Z,52.90
2018-12-12T00:56:14.790Z,51.47
2018-12-12T00:58:43.984Z,51.17
2018-12-12T01:01:13.330Z,51.30
2018-12-12T01:03:42.590Z,52.23
2018-12-12T01:06:12.070Z,50.63
2018-12-12T01:08:41.322Z,51.93
2018-12-12T01:11:16.072Z,53.27
2018-12-12T01:13:45.301Z,52.47
2018-12-12T01:16:14.544Z,54.70
2018-12-12T01:18:43.960Z,53.93
2018-12-12T01:21:13.450Z,52.40
2018-12-12T01:23:42.860Z,51.00
2018-12-12T01:26:12.333Z,49.43
2018-12-12T01:28:41.604Z,48.77
2018-12-12T01:31:10.859Z,50.70
2018-12-12T01:33:40.184Z,49.17
2018-12-12T01:36:09.506Z,47.40
2018-12-12T01:38:38.761Z,45.73
2018-12-12T01:41:08.252Z,48.80
2018-12-12T01:43:37.528Z,49.57
2018-12-12T01:46:06.761Z,47.47
2018-12-12T01:48:43.146Z,47.20
2018-12-12T01:51:12.379Z,45.37
2018-12-12T01:53:41.591Z,45.47
2018-12-12T01:56:10.940Z,45.97
2018-12-12T01:58:40.132Z,45.53
2018-12-12T02:01:09.397Z,45.57
2018-12-12T02:03:38.599Z,44.23
2018-12-12T02:06:08.054Z,46.37
2018-12-12T02:08:37.532Z,46.30
2018-12-12T02:11:06.996Z,44.57
2018-12-12T02:13:37.052Z,44.63
2018-12-12T02:16:08.154Z,42.83
2018-12-12T02:18:39.911Z,42.40
2018-12-12T02:21:09.160Z,42.17
2018-12-12T02:23:38.410Z,42.27
2018-12-12T02:26:07.653Z,40.50
2018-12-12T02:28:36.918Z,44.27
2018-12-12T02:31:06.274Z,41.57
2018-12-12T02:33:35.541Z,42.40
2018-12-12T02:36:04.838Z,41.00
2018-12-12T02:38:35.183Z,41.63
2018-12-12T02:41:04.589Z,39.80
2018-12-12T02:43:33.877Z,40.93
2018-12-12T02:46:03.291Z,40.13
2018-12-12T02:48:32.718Z,41.30
2018-12-12T02:51:02.132Z,39.37
2018-12-12T02:53:31.411Z,40.43
2018-12-12T02:56:00.911Z,41.43
2018-12-12T02:58:30.214Z,39.97
2018-12-12T03:00:59.835Z,38.97
2018-12-12T03:03:30.133Z,38.67
2018-12-12T03:05:59.520Z,40.27
2018-12-12T03:08:28.765Z,39.73
2018-12-12T03:10:57.936Z,39.33
2018-12-12T03:13:27.145Z,38.93
2018-12-12T03:15:56.362Z,39.10
2018-12-12T03:18:25.646Z,38.73
2018-12-12T03:20:55.008Z,40.97
2018-12-12T03:23:24.472Z,42.70
2018-12-12T03:25:53.763Z,42.47
2018-12-12T03:28:22.934Z,43.23
2018-12-12T03:30:52.440Z,42.47
2018-12-12T03:33:21.679Z,41.93
2018-12-12T03:35:52.036Z,40.27
2018-12-12T03:38:21.226Z,40.63
2018-12-12T03:40:51.144Z,41.90
2018-12-12T03:43:20.378Z,44.17
2018-12-12T03:45:49.609Z,48.50
2018-12-12T03:48:20.894Z,48.23
2018-12-12T03:50:50.968Z,42.13
2018-12-12T03:53:20.188Z,39.30
2018-12-12T03:55:49.697Z,38.53
2018-12-12T03:58:18.856Z,38.07
2018-12-12T04:00:48.360Z,34.50
2018-12-12T04:03:17.663Z,36.93
2018-12-12T04:05:47.003Z,37.10
2018-12-12T04:08:16.197Z,37.47
2018-12-12T04:10:45.489Z,37.23
2018-12-12T04:13:14.727Z,37.10
2018-12-12T04:15:44.170Z,36.20
2018-12-12T04:18:13.400Z,36.43
2018-12-12T04:20:42.665Z,35.23
2018-12-12T04:23:11.904Z,38.43
2018-12-12T04:25:41.220Z,36.93
2018-12-12T04:28:10.502Z,38.50
2018-12-12T04:30:39.995Z,38.20
2018-12-12T04:33:09.305Z,44.63
2018-12-12T04:35:38.548Z,48.63
2018-12-12T04:38:07.872Z,50.57
2018-12-12T04:40:37.094Z,43.77
2018-12-12T04:43:06.342Z,36.80
2018-12-12T04:45:36.276Z,36.23
2018-12-12T04:48:05.519Z,34.83
2018-12-12T04:50:35.016Z,33.13
2018-12-12T04:53:04.251Z,31.53
2018-12-12T04:55:33.599Z,32.87
2018-12-12T05:00:49.347Z,32.23
2018-12-12T05:03:18.824Z,32.07
2018-12-12T05:05:48.079Z,32.23
2018-12-12T05:08:17.309Z,31.37
2018-12-12T05:10:46.904Z,30.53
2018-12-12T05:13:16.293Z,34.90
2018-12-12T05:15:45.721Z,34.03
2018-12-12T05:18:15.075Z,34.37
2018-12-12T05:27:32.153Z,43.73
2018-12-12T05:30:01.398Z,33.90
2018-12-12T05:32:31.069Z,31.63
2018-12-12T05:35:00.279Z,31.70
2018-12-12T05:37:29.711Z,33.00
2018-12-12T05:39:58.961Z,30.03
2018-12-12T05:42:28.348Z,29.33
2018-12-12T05:44:57.554Z,32.63
2018-12-12T05:47:26.901Z,34.47
2018-12-12T05:49:56.173Z,31.87
2018-12-12T05:52:25.496Z,29.60
2018-12-12T05:54:54.683Z,33.93
2018-12-12T05:57:23.928Z,39.30
2018-12-12T05:59:53.312Z,37.97
2018-12-12T06:02:22.645Z,36.27
2018-12-12T06:04:51.965Z,35.17
2018-12-12T06:07:21.297Z,34.60
2018-12-12T06:09:50.597Z,37.57
2018-12-12T06:12:20.169Z,34.47
2018-12-12T06:14:49.424Z,35.10
2018-12-12T06:17:18.873Z,33.07
2018-12-12T06:19:48.365Z,33.07
2018-12-12T06:22:18.141Z,36.97
2018-12-12T06:24:47.391Z,36.37
2018-12-12T06:27:16.632Z,33.10
2018-12-12T06:29:46.967Z,30.50
2018-12-12T06:32:16.419Z,31.27
2018-12-12T06:34:45.617Z,29.47
2018-12-12T06:37:14.895Z,31.57
2018-12-12T06:39:44.261Z,31.03
2018-12-12T06:42:13.538Z,30.53
2018-12-12T06:44:42.768Z,29.33
2018-12-12T06:47:12.264Z,28.87
2018-12-12T06:49:41.574Z,28.60
2018-12-12T06:52:11.112Z,28.33
2018-12-12T06:54:40.388Z,28.93
2018-12-12T06:57:09.876Z,29.50
2018-12-12T06:59:39.121Z,27.30
2018-12-12T07:02:08.580Z,29.57
2018-12-12T07:04:38.207Z,27.67
2018-12-12T07:07:08.304Z,26.87
2018-12-12T07:09:37.578Z,27.33
2018-12-12T07:12:06.934Z,28.50
2018-12-12T07:14:36.203Z,27.33
2018-12-12T07:17:05.407Z,27.67
2018-12-12T07:19:34.605Z,25.43
2018-12-12T07:22:03.842Z,28.20
2018-12-12T07:24:33.153Z,26.77
2018-12-12T07:27:02.715Z,29.30
2018-12-12T07:29:32.039Z,29.20
2018-12-12T07:32:01.533Z,29.27
2018-12-12T07:34:31.003Z,30.20
2018-12-12T07:37:00.241Z,30.07
2018-12-12T07:39:29.715Z,30.27
2018-12-12T07:41:59.177Z,30.37
2018-12-12T07:44:46.127Z,30.27
2018-12-12T07:47:17.356Z,28.93
2018-12-12T07:49:48.565Z,29.87
2018-12-12T07:52:23.339Z,29.07
2018-12-12T07:54:52.651Z,28.80
2018-12-12T07:57:22.061Z,28.53
2018-12-12T07:59:51.559Z,28.20
2018-12-12T08:02:23.201Z,28.37
2018-12-12T08:04:53.285Z,28.33
2018-12-12T08:07:23.029Z,27.50
2018-12-12T08:09:52.229Z,28.40
2018-12-12T08:12:22.765Z,29.27
2018-12-12T08:14:52.004Z,29.13
2018-12-12T08:17:21.308Z,30.20
2018-12-12T08:19:50.616Z,31.03
2018-12-12T08:22:20.147Z,31.70
2018-12-12T08:24:49.452Z,31.40
2018-12-12T08:27:18.839Z,30.83
2018-12-12T08:29:48.118Z,31.57
2018-12-12T08:32:19.398Z,29.80
2018-12-12T08:34:48.722Z,30.60
2018-12-12T08:37:17.976Z,31.90
2018-12-12T08:39:47.200Z,33.97
2018-12-12T08:42:16.436Z,35.73
2018-12-12T08:44:45.654Z,35.83
2018-12-12T08:47:15.059Z,29.83
2018-12-12T08:49:44.383Z,29.13
2018-12-12T08:52:13.600Z,28.23
2018-12-12T08:54:42.766Z,29.50
2018-12-12T08:57:12.082Z,30.63
2018-12-12T08:59:41.384Z,30.70
2018-12-12T09:02:10.568Z,29.10
2018-12-12T09:04:40.974Z,27.13
2018-12-12T09:07:10.179Z,26.10
2018-12-12T09:09:39.595Z,26.67
2018-12-12T09:12:08.916Z,24.97
2018-12-12T09:14:38.070Z,26.17
2018-12-12T09:17:09.838Z,24.83
2018-12-12T09:19:38.964Z,25.20
2018-12-12T09:22:08.150Z,26.27
2018-12-12T09:24:37.538Z,26.30
2018-12-12T09:27:06.983Z,25.83
2018-12-12T09:29:36.374Z,25.97
2018-12-12T09:32:07.646Z,26.10
2018-12-12T09:34:38.880Z,27.03
2018-12-12T09:37:08.157Z,26.93
2018-12-12T09:39:51.493Z,26.97
2018-12-12T09:42:20.867Z,27.20
2018-12-12T09:44:50.165Z,27.53
2018-12-12T09:47:19.541Z,26.53
2018-12-12T09:49:49.232Z,25.70
2018-12-12T09:52:20.558Z,26.33
2018-12-12T09:54:51.885Z,25.73
2018-12-12T09:57:21.367Z,26.83
2018-12-12T09:59:50.595Z,28.47
2018-12-12T10:02:20.039Z,28.10
2018-12-12T10:04:49.242Z,26.13
2018-12-12T10:07:18.458Z,26.30
2018-12-12T10:09:47.630Z,27.10
2018-12-12T10:12:17.044Z,27.20
2018-12-12T10:14:46.272Z,27.70
2018-12-12T10:17:15.484Z,26.30
2018-12-12T10:19:44.720Z,25.97
2018-12-12T10:22:14.038Z,27.37
2018-12-12T10:24:43.254Z,25.20
2018-12-12T10:27:12.706Z,24.67
2018-12-12T10:29:41.992Z,23.83
2018-12-12T10:32:11.238Z,24.87
2018-12-12T10:34:40.448Z,23.93
2018-12-12T10:37:09.804Z,24.33
2018-12-12T10:39:39.028Z,22.77
2018-12-12T10:42:08.463Z,22.87
2018-12-12T10:44:37.764Z,22.97
2018-12-12T10:47:07.225Z,22.70
2018-12-12T10:49:36.842Z,23.03
2018-12-12T10:52:06.236Z,23.37
2018-12-12T10:54:35.752Z,22.87
2018-12-12T10:57:05.146Z,23.40
2018-12-12T10:59:34.508Z,23.67
2018-12-12T11:02:09.264Z,23.47
2018-12-12T11:04:38.575Z,23.77
2018-12-12T11:07:08.098Z,25.20
2018-12-12T11:09:37.388Z,23.33
2018-12-12T11:12:06.783Z,23.70
2018-12-12T11:14:36.081Z,25.23
2018-12-12T11:17:05.647Z,24.60
2018-12-12T11:19:34.899Z,25.07
2018-12-12T11:22:04.166Z,25.03
2018-12-12T11:24:33.448Z,29.87
2018-12-12T11:27:02.743Z,24.63
2018-12-12T11:29:32.203Z,27.87
2018-12-12T11:32:01.445Z,22.50
2018-12-12T11:34:30.697Z,21.67
2018-12-12T11:36:59.908Z,20.87
2018-12-12T11:39:29.227Z,19.17
2018-12-12T11:41:59.193Z,19.10
2018-12-12T11:44:28.891Z,18.30
2018-12-12T11:46:58.609Z,22.23
2018-12-12T11:49:27.835Z,18.77
2018-12-12T11:51:57.383Z,19.07
2018-12-12T11:54:26.677Z,18.03
2018-12-12T11:56:56.074Z,18.50
2018-12-12T11:59:27.354Z,19.77
2018-12-12T12:01:56.638Z,17.73
2018-12-12T12:04:25.865Z,18.73
2018-12-12T12:06:55.442Z,19.03
2018-12-12T12:09:24.744Z,19.70
2018-12-12T12:11:54.042Z,18.37
2018-12-12T12:14:25.492Z,17.60
2018-12-12T12:16:54.962Z,18.60
2018-12-12T12:19:24.236Z,17.73
2018-12-12T12:21:53.689Z,17.43
2018-12-12T12:24:24.239Z,18.63
2018-12-12T12:26:53.867Z,18.43
2018-12-12T12:32:09.294Z,30.67
2018-12-12T12:34:38.556Z,18.87
2018-12-12T12:37:07.973Z,18.10
2018-12-12T12:39:37.212Z,16.63
2018-12-12T12:42:06.714Z,17.03
2018-12-12T12:44:37.035Z,16.20
2018-12-12T12:47:06.471Z,17.87
2018-12-12T12:49:35.832Z,18.40
2018-12-12T12:52:05.808Z,17.17
2018-12-12T12:54:35.042Z,16.60
2018-12-12T12:57:04.309Z,15.90
2018-12-12T12:59:33.613Z,15.10
2018-12-12T13:02:02.911Z,16.30
2018-12-12T13:04:32.165Z,17.73
2018-12-12T13:07:01.645Z,18.20
2018-12-12T13:09:30.913Z,12.53
2018-12-12T13:12:00.346Z,13.47
2018-12-12T13:14:30.225Z,13.30
2018-12-12T13:16:59.447Z,13.50
2018-12-12T13:19:29.280Z,13.57
2018-12-12T13:21:58.507Z,13.30
2018-12-12T13:24:27.690Z,13.30
2018-12-12T13:26:56.910Z,14.63
2018-12-12T13:29:27.252Z,15.53
2018-12-12T13:31:57.012Z,15.57
2018-12-12T13:34:26.269Z,15.83
2018-12-12T13:36:55.558Z,20.30
2018-12-12T13:39:24.867Z,15.63
2018-12-12T13:41:56.139Z,15.43
2018-12-12T13:44:25.476Z,23.37
2018-12-12T13:46:54.873Z,18.20
2018-12-12T13:49:24.121Z,16.60
2018-12-12T13:51:53.722Z,17.33
2018-12-12T13:54:23.387Z,17.43
2018-12-12T13:56:52.787Z,19.97
2018-12-12T13:59:22.061Z,18.13
2018-12-12T14:01:51.563Z,16.70
2018-12-12T14:04:22.857Z,17.30
2018-12-12T14:06:52.243Z,16.47
2018-12-12T14:09:21.510Z,16.97
2018-12-12T14:11:50.843Z,16.40
2018-12-12T14:14:20.075Z,16.97
2018-12-12T14:16:49.303Z,18.57
2018-12-12T14:19:18.475Z,19.80
2018-12-12T14:21:47.765Z,18.90
2018-12-12T14:24:17.060Z,18.73
2018-12-12T14:26:46.433Z,19.30
2018-12-12T14:29:16.049Z,19.23
2018-12-12T14:31:45.307Z,19.23
2018-12-12T14:34:14.645Z,20.03
2018-12-12T14:36:45.028Z,20.23
2018-12-12T14:39:14.418Z,20.10
2018-12-12T14:41:43.778Z,19.43
2018-12-12T14:44:12.983Z,20.57
2018-12-12T14:46:42.511Z,19.80
2018-12-12T14:49:11.784Z,21.30
2018-12-12T14:51:41.096Z,19.17
2018-12-12T14:54:10.434Z,20.37
2018-12-12T14:56:39.774Z,21.53
2018-12-12T14:59:09.058Z,20.30
2018-12-12T15:01:38.321Z,20.07
2018-12-12T15:04:07.504Z,21.37
2018-12-12T15:06:36.770Z,21.53
2018-12-12T15:09:07.748Z,20.83
2018-12-12T15:11:37.983Z,23.23
2018-12-12T15:14:07.190Z,21.87
2018-12-12T15:16:36.544Z,21.40
2018-12-12T15:19:05.854Z,23.13
2018-12-12T15:21:35.149Z,24.17
2018-12-12T15:24:04.447Z,23.80
2018-12-12T15:26:33.965Z,23.90
2018-12-12T15:29:03.190Z,23.30
2018-12-12T15:31:32.457Z,21.17
2018-12-12T15:34:01.714Z,22.13
2018-12-12T15:36:31.072Z,21.57
2018-12-12T15:39:00.290Z,21.47
2018-12-12T15:41:29.789Z,21.60
2018-12-12T15:43:59.123Z,20.83
2018-12-12T15:46:28.433Z,20.37
2018-12-12T15:48:57.849Z,21.37
2018-12-12T15:51:27.227Z,20.47
2018-12-12T15:53:56.580Z,21.33
2018-12-12T15:56:26.047Z,21.07
2018-12-12T15:58:55.298Z,21.20
2018-12-12T16:01:24.533Z,23.10
2018-12-12T16:03:53.919Z,22.03
2018-12-12T16:06:23.421Z,22.07
2018-12-12T16:08:52.807Z,21.13
2018-12-12T16:11:22.205Z,22.07
2018-12-12T16:13:51.696Z,22.53
2018-12-12T16:16:21.347Z,22.07
2018-12-12T16:18:50.571Z,22.80
2018-12-12T16:21:20.021Z,22.10
2018-12-12T16:23:49.304Z,22.47
2018-12-12T16:26:18.755Z,21.63
2018-12-12T16:28:48.184Z,22.30
2018-12-12T16:31:17.431Z,23.37
2018-12-12T16:33:48.005Z,23.20
2018-12-12T16:36:17.463Z,22.73
2018-12-12T16:38:51.129Z,22.17
2018-12-12T16:41:20.585Z,21.30
2018-12-12T16:43:49.945Z,22.33
2018-12-12T16:46:21.397Z,18.90
2018-12-12T16:48:50.715Z,19.73
2018-12-12T16:51:20.238Z,16.50
2018-12-12T16:53:49.811Z,16.33
2018-12-12T16:56:19.223Z,16.73
2018-12-12T16:58:48.551Z,16.23
2018-12-12T17:01:18.151Z,17.23
2018-12-12T17:03:47.557Z,15.73
2018-12-12T17:06:16.920Z,14.43
2018-12-12T17:08:46.224Z,14.80
2018-12-12T17:11:15.590Z,15.17
2018-12-12T17:13:44.883Z,14.90
2018-12-12T17:16:14.581Z,17.33
2018-12-12T17:18:43.774Z,16.37
2018-12-12T17:21:13.100Z,17.37
2018-12-12T17:23:42.297Z,16.90
2018-12-12T17:26:11.811Z,17.93
2018-12-12T17:28:41.964Z,16.43
2018-12-12T17:31:11.486Z,17.20
2018-12-12T17:33:41.058Z,16.77
2018-12-12T17:36:10.515Z,15.80
2018-12-12T17:38:39.941Z,15.53
2018-12-12T17:41:09.360Z,14.67
2018-12-12T17:43:39.984Z,15.40
2018-12-12T17:46:09.408Z,13.90
2018-12-12T17:48:39.566Z,14.93
2018-12-12T17:51:09.066Z,14.40
2018-12-12T17:53:38.416Z,13.70
2018-12-12T17:56:08.010Z,13.60
2018-12-12T17:58:37.726Z,13.33
2018-12-12T18:01:07.500Z,12.93
2018-12-12T18:03:38.817Z,13.33
2018-12-12T18:06:13.956Z,12.53
2018-12-12T18:08:44.048Z,12.63
2018-12-12T18:11:13.808Z,12.80
2018-12-12T18:13:43.471Z,13.90
2018-12-12T18:16:14.912Z,13.83
2018-12-12T18:18:45.027Z,15.67
2018-12-12T18:21:14.394Z,13.70
2018-12-12T18:23:47.073Z,12.50
2018-12-12T18:26:16.488Z,13.43
2018-12-12T18:28:45.778Z,13.37
2018-12-12T18:31:16.957Z,15.20
2018-12-12T18:34:04.173Z,14.93
2018-12-12T18:36:36.532Z,16.07
2018-12-12T18:39:07.974Z,14.53
2018-12-12T18:41:37.539Z,16.07
2018-12-12T18:44:08.833Z,16.87
2018-12-12T18:46:38.396Z,15.80
2018-12-12T18:49:07.762Z,15.47
2018-12-12T18:51:39.162Z,14.17
2018-12-12T18:54:09.411Z,17.53
2018-12-12T18:56:40.982Z,16.17
2018-12-12T18:59:10.484Z,18.40
2018-12-12T19:01:39.903Z,15.30
2018-12-12T19:04:09.397Z,14.97
2018-12-12T19:06:38.710Z,14.57
2018-12-12T19:09:08.362Z,14.80
2018-12-12T19:11:44.375Z,14.83
2018-12-12T19:14:10.917Z,15.03
2018-12-12T19:16:40.216Z,14.63
2018-12-12T19:19:09.515Z,14.23
2018-12-12T19:21:39.388Z,14.20
2018-12-12T19:24:08.811Z,14.83
2018-12-12T19:26:38.184Z,14.00
2018-12-12T19:29:07.532Z,13.00
2018-12-12T19:31:37.020Z,15.50
2018-12-12T19:34:06.669Z,15.43
2018-12-12T19:36:37.119Z,14.37
2018-12-12T19:39:08.625Z,17.90
2018-12-12T19:41:40.162Z,17.43
2018-12-12T19:44:09.482Z,15.47
2018-12-12T19:46:38.789Z,15.07
2018-12-12T19:49:08.274Z,15.00
2018-12-12T19:51:37.840Z,15.73
2018-12-12T19:54:07.120Z,15.67
2018-12-12T19:56:36.796Z,16.13
2018-12-12T19:59:06.192Z,15.73
2018-12-12T20:01:35.530Z,15.63
2018-12-12T20:04:05.632Z,15.13
2018-12-12T20:06:35.024Z,16.03
2018-12-12T20:09:07.402Z,15.00
2018-12-12T20:11:38.348Z,14.90
2018-12-12T20:14:07.973Z,14.70
2018-12-12T20:16:37.631Z,15.00
2018-12-12T20:19:07.709Z,14.80
